Time;durP1;ratioP1;P1;durP2;ratioP2;P2;SDS_P1;SDS_P2;PMS_P1;PMS_P2;Temp;Humidity;BMP_temperature;BMP_pressure;BME280_temperature;BME280_humidity;BME280_pressure;Samples;Min_cycle;Max_cycle;Signal;HPM_P1;HPM_P2
2022/12/24 00:00:17;;;;;;;;;;;6.80;91.70;;;;;;5074208;28;19937;-87
2022/12/24 00:02:44;;;;;;;;;;;6.70;91.60;;;;;;5078942;28;19948;-87
2022/12/24 00:05:09;;;;;;;;;;;6.90;91.50;;;;;;5094370;28;19986;-87
2022/12/24 00:07:35;;;;;;;;;;;7.10;90.50;;;;;;5094270;28;19956;-87
2022/12/24 00:10:00;;;;;;;;;;;7.20;89.80;;;;;;5076111;28;20319;-87
2022/12/24 00:12:26;;;;;;;;;;;7.20;89.70;;;;;;5091726;28;19959;-87
2022/12/24 00:14:52;;;;;;;;;;;6.90;90.50;;;;;;5073912;28;20290;-87
2022/12/24 00:17:17;;;;;;;;;;;6.90;91.00;;;;;;5073904;28;19993;-87
2022/12/24 00:19:43;;;;;;;;;;;6.90;90.90;;;;;;5073797;28;20028;-87
2022/12/24 00:22:08;;;;;;;;;;;6.70;90.70;;;;;;5073567;28;19980;-87
2022/12/24 00:24:34;;;;;;;;;;;6.60;91.50;;;;;;5093515;28;20333;-87
2022/12/24 00:26:59;;;;;;;;;;;6.70;91.60;;;;;;5093903;28;20323;-87
2022/12/24 00:29:25;;;;;;;;;;;6.80;91.60;;;;;;5093915;28;20301;-87
2022/12/24 00:31:50;;;;;;;;;;;7.00;91.50;;;;;;5093851;28;20321;-87
2022/12/24 00:34:16;;;;;;;;;;;7.00;91.10;;;;;;5076410;28;20322;-86
2022/12/24 00:36:41;;;;;;;;;;;6.90;90.80;;;;;;5073535;28;19944;-86
2022/12/24 00:39:07;;;;;;;;;;;6.80;91.20;;;;;;5073689;28;19972;-87
2022/12/24 00:41:32;;;;;;;;;;;6.70;91.60;;;;;;5073447;28;20292;-87
2022/12/24 00:44:04;;;;;;;;;;;6.60;91.70;;;;;;5085491;28;19942;-86
2022/12/24 00:46:31;;;;;;;;;;;6.60;92.00;;;;;;5093264;28;19948;-86
2022/12/24 00:48:56;;;;;;;;;;;6.50;92.10;;;;;;5093593;28;20008;-86
2022/12/24 00:51:22;;;;;;;;;;;6.50;92.40;;;;;;5093227;28;19980;-86
2022/12/24 00:53:48;;;;;;;;;;;6.40;92.60;;;;;;5082923;28;19955;-86
2022/12/24 00:56:14;;;;;;;;;;;6.40;92.90;;;;;;5073266;28;19945;-86
2022/12/24 00:58:39;;;;;;;;;;;6.40;93.00;;;;;;5073236;28;19937;-86
2022/12/24 01:01:05;;;;;;;;;;;6.40;93.20;;;;;;5073183;28;20363;-86
2022/12/24 01:03:36;;;;;;;;;;;6.40;93.40;;;;;;5062528;28;19941;-86
2022/12/24 01:06:03;;;;;;;;;;;6.50;93.60;;;;;;5093597;28;19951;-86
2022/12/24 01:08:29;;;;;;;;;;;6.60;93.60;;;;;;5092727;28;19971;-86
2022/12/24 01:10:55;;;;;;;;;;;6.60;93.40;;;;;;5093153;28;20029;-86
2022/12/24 01:13:20;;;;;;;;;;;6.70;93.20;;;;;;5092587;28;19948;-87
2022/12/24 01:15:46;;;;;;;;;;;6.70;93.10;;;;;;5093082;28;20315;-86
2022/12/24 01:18:11;;;;;;;;;;;6.70;93.10;;;;;;5075078;28;19989;-87
2022/12/24 01:20:37;;;;;;;;;;;6.70;93.00;;;;;;5093240;28;19940;-86
2022/12/24 01:23:02;;;;;;;;;;;6.60;93.10;;;;;;5089610;28;20454;-86
2022/12/24 01:25:28;;;;;;;;;;;6.50;93.20;;;;;;5055020;28;19988;-87
2022/12/24 01:27:54;;;;;;;;;;;6.60;93.40;;;;;;5072863;28;19961;-86
2022/12/24 01:30:19;;;;;;;;;;;6.60;93.40;;;;;;5072926;28;20306;-86
2022/12/24 01:32:47;;;;;;;;;;;6.60;93.30;;;;;;5072591;28;20379;-87
2022/12/24 01:35:12;;;;;;;;;;;6.60;93.30;;;;;;5093095;28;19941;-87
2022/12/24 01:37:38;;;;;;;;;;;6.60;93.30;;;;;;5093028;28;19937;-87
2022/12/24 01:45:33;;;;;;;;;;;6.60;93.40;;;;;;5072793;28;20347;-87
2022/12/24 01:47:58;;;;;;;;;;;6.70;93.40;;;;;;5072699;28;19960;-87
2022/12/24 01:50:24;;;;;;;;;;;6.80;93.40;;;;;;5072782;28;20034;-87
2022/12/24 01:52:49;;;;;;;;;;;6.90;93.40;;;;;;5087006;28;19969;-87
2022/12/24 01:55:16;;;;;;;;;;;6.90;93.20;;;;;;5092761;28;19940;-87
2022/12/24 01:57:44;;;;;;;;;;;6.90;92.90;;;;;;5092893;28;19942;-87
2022/12/24 02:00:11;;;;;;;;;;;6.90;93.00;;;;;;5092854;28;20380;-87
2022/12/24 02:02:39;;;;;;;;;;;7.00;93.00;;;;;;5081536;28;19942;-87
2022/12/24 02:05:09;;;;;;;;;;;7.00;92.80;;;;;;5076436;28;19949;-87
2022/12/24 02:07:35;;;;;;;;;;;7.00;92.50;;;;;;5076318;28;19958;-87
2022/12/24 02:10:01;;;;;;;;;;;6.90;92.80;;;;;;5076330;28;19997;-87
2022/12/24 02:12:28;;;;;;;;;;;6.90;92.70;;;;;;5087075;28;20075;-86
2022/12/24 02:14:54;;;;;;;;;;;7.00;92.60;;;;;;5096523;28;19947;-87
2022/12/24 02:17:25;;;;;;;;;;;7.00;92.50;;;;;;5096491;28;19941;-87
2022/12/24 02:19:57;;;;;;;;;;;6.90;92.50;;;;;;5078370;28;19992;-87
2022/12/24 02:22:34;;;;;;;;;;;6.90;92.60;;;;;;5103042;22;19975;-87
2022/12/24 02:25:15;;;;;;;;;;;6.90;92.60;;;;;;5096314;28;19977;-87
2022/12/24 02:27:46;;;;;;;;;;;6.90;92.60;;;;;;5096219;28;19956;-87
2022/12/24 02:30:29;;;;;;;;;;;6.90;92.70;;;;;;5096238;28;19980;-87
2022/12/24 02:32:55;;;;;;;;;;;6.90;92.60;;;;;;5095968;28;19970;-87
2022/12/24 02:35:36;;;;;;;;;;;6.90;92.90;;;;;;5095759;28;19948;-87
2022/12/24 02:38:13;;;;;;;;;;;7.00;92.80;;;;;;5096083;28;19941;-87
2022/12/24 02:40:41;;;;;;;;;;;6.90;92.70;;;;;;5096069;28;19944;-87
2022/12/24 02:43:10;;;;;;;;;;;6.90;92.90;;;;;;5095680;28;20560;-87
2022/12/24 02:45:39;;;;;;;;;;;6.90;93.00;;;;;;5095632;28;19945;-87
2022/12/24 02:48:04;;;;;;;;;;;6.80;92.90;;;;;;5095869;28;19966;-87
2022/12/24 02:50:30;;;;;;;;;;;6.80;92.90;;;;;;5095842;28;20319;-87
2022/12/24 02:52:55;;;;;;;;;;;6.70;93.00;;;;;;5085092;28;19967;-87
2022/12/24 02:55:21;;;;;;;;;;;6.70;93.20;;;;;;5075449;28;20316;-87
2022/12/24 02:57:59;;;;;;;;;;;6.70;93.30;;;;;;5075510;28;19980;-87
2022/12/24 03:00:25;;;;;;;;;;;6.70;93.60;;;;;;5075446;28;19940;-87
2022/12/24 03:03:01;;;;;;;;;;;6.70;93.60;;;;;;5075399;28;19988;-87
2022/12/24 03:05:33;;;;;;;;;;;6.70;93.70;;;;;;5075131;28;19944;-87
2022/12/24 03:08:09;;;;;;;;;;;6.70;94.00;;;;;;5075250;28;19963;-87
2022/12/24 03:10:35;;;;;;;;;;;6.80;93.90;;;;;;5075237;28;20413;-87
2022/12/24 03:13:03;;;;;;;;;;;6.70;93.90;;;;;;5074705;28;20025;-87
2022/12/24 03:15:30;;;;;;;;;;;6.90;93.90;;;;;;5075166;28;19946;-87
2022/12/24 03:17:56;;;;;;;;;;;6.90;93.70;;;;;;5075124;28;19940;-87
2022/12/24 03:20:25;;;;;;;;;;;6.90;93.70;;;;;;5075032;28;20395;-87
2022/12/24 03:22:51;;;;;;;;;;;6.90;93.80;;;;;;5074437;28;19977;-86
2022/12/24 03:25:17;;;;;;;;;;;6.90;93.50;;;;;;5074774;28;19953;-86
2022/12/24 03:27:43;;;;;;;;;;;6.80;93.40;;;;;;5074817;28;19956;-87
2022/12/24 03:30:13;;;;;;;;;;;6.70;93.80;;;;;;5074837;28;20608;-86
2022/12/24 03:32:38;;;;;;;;;;;6.70;94.20;;;;;;5074226;28;20444;-87
2022/12/24 03:35:05;;;;;;;;;;;6.70;94.40;;;;;;5074563;28;19949;-86
2022/12/24 03:37:30;;;;;;;;;;;6.70;94.50;;;;;;5074674;28;19940;-87
2022/12/24 03:39:56;;;;;;;;;;;6.80;94.50;;;;;;5074660;28;19939;-87
2022/12/24 03:42:21;;;;;;;;;;;6.90;94.40;;;;;;5074402;28;19948;-87
2022/12/24 03:44:47;;;;;;;;;;;6.90;94.40;;;;;;5074418;28;20037;-87
2022/12/24 03:47:12;;;;;;;;;;;6.90;94.40;;;;;;5075035;28;20058;-86
2022/12/24 03:49:38;;;;;;;;;;;7.00;94.20;;;;;;5074469;28;20406;-87
2022/12/24 03:52:04;;;;;;;;;;;7.10;94.10;;;;;;5073947;28;19961;-87
2022/12/24 03:54:29;;;;;;;;;;;7.00;93.90;;;;;;5074277;28;19936;-87
2022/12/24 03:56:55;;;;;;;;;;;6.90;93.80;;;;;;5074333;28;19939;-87
2022/12/24 03:59:20;;;;;;;;;;;6.90;94.00;;;;;;5074249;28;20383;-86
2022/12/24 04:01:46;;;;;;;;;;;7.00;94.00;;;;;;5074037;28;20440;-86
2022/12/24 04:04:11;;;;;;;;;;;7.00;93.80;;;;;;5074181;28;19957;-86
2022/12/24 04:06:37;;;;;;;;;;;6.90;93.60;;;;;;5074110;28;19941;-86
2022/12/24 04:09:03;;;;;;;;;;;6.90;93.70;;;;;;5073985;28;20076;-87
2022/12/24 04:11:30;;;;;;;;;;;6.80;94.00;;;;;;5073785;28;19951;-86
2022/12/24 04:13:55;;;;;;;;;;;6.80;94.00;;;;;;5054031;28;20003;-86
2022/12/24 04:16:21;;;;;;;;;;;6.80;94.10;;;;;;5053981;28;20393;-87
2022/12/24 04:18:46;;;;;;;;;;;6.80;94.20;;;;;;5053941;28;20412;-87
2022/12/24 04:21:12;;;;;;;;;;;6.80;94.60;;;;;;5053693;28;19939;-87
2022/12/24 04:23:38;;;;;;;;;;;6.90;94.60;;;;;;5071538;28;19957;-87
2022/12/24 04:26:04;;;;;;;;;;;6.90;94.50;;;;;;5073138;28;19939;-87
2022/12/24 04:28:30;;;;;;;;;;;6.90;94.50;;;;;;5073633;28;20009;-87
2022/12/24 04:30:59;;;;;;;;;;;7.00;94.40;;;;;;5073648;28;19936;-87
2022/12/24 04:33:25;;;;;;;;;;;7.00;94.30;;;;;;5073326;28;20308;-87
2022/12/24 04:35:50;;;;;;;;;;;7.00;94.20;;;;;;5073548;28;19939;-87
2022/12/24 04:38:16;;;;;;;;;;;7.00;94.10;;;;;;5073570;28;19939;-87
2022/12/24 04:40:41;;;;;;;;;;;7.10;94.20;;;;;;5073510;28;19937;-87
2022/12/24 04:43:07;;;;;;;;;;;7.20;94.00;;;;;;5073240;28;20007;-87
2022/12/24 04:45:32;;;;;;;;;;;7.20;93.70;;;;;;5073405;28;20046;-87
2022/12/24 04:47:58;;;;;;;;;;;7.20;93.60;;;;;;5073336;28;19957;-86
2022/12/24 04:50:24;;;;;;;;;;;7.20;93.30;;;;;;5073389;28;20035;-87
2022/12/24 04:52:49;;;;;;;;;;;7.20;93.10;;;;;;5072856;28;20572;-87
2022/12/24 04:55:15;;;;;;;;;;;7.00;93.30;;;;;;5073194;28;19939;-87
2022/12/24 04:57:40;;;;;;;;;;;7.10;93.40;;;;;;5073322;28;20402;-87
2022/12/24 05:00:06;;;;;;;;;;;7.10;93.40;;;;;;5055356;28;19987;-86
2022/12/24 05:02:31;;;;;;;;;;;7.20;93.10;;;;;;5072934;28;19980;-86
2022/12/24 05:04:57;;;;;;;;;;;7.20;93.00;;;;;;5073081;28;19987;-86
2022/12/24 05:07:22;;;;;;;;;;;7.10;93.00;;;;;;5073122;28;19961;-86
2022/12/24 05:09:48;;;;;;;;;;;7.10;93.10;;;;;;5073164;28;19941;-86
2022/12/24 05:12:13;;;;;;;;;;;6.90;93.20;;;;;;5072917;28;19948;-86
2022/12/24 05:14:39;;;;;;;;;;;6.90;93.40;;;;;;5073083;28;19951;-87
2022/12/24 05:17:05;;;;;;;;;;;6.90;93.60;;;;;;5073113;28;19970;-87
2022/12/24 05:19:30;;;;;;;;;;;7.00;93.60;;;;;;5072867;28;20372;-87
2022/12/24 05:27:24;;;;;;;;;;;7.10;93.40;;;;;;5072945;28;20364;-87
2022/12/24 05:29:49;;;;;;;;;;;7.10;93.40;;;;;;5072694;28;19949;-87
2022/12/24 05:32:15;;;;;;;;;;;7.10;93.50;;;;;;5072872;28;19938;-87
2022/12/24 05:34:40;;;;;;;;;;;7.10;93.50;;;;;;5072931;28;19943;-87
2022/12/24 05:37:06;;;;;;;;;;;7.10;93.60;;;;;;5075148;28;19935;-86
2022/12/24 05:39:31;;;;;;;;;;;7.10;93.40;;;;;;5076508;28;20043;-86
2022/12/24 05:41:57;;;;;;;;;;;7.10;93.30;;;;;;5076723;28;19999;-86
2022/12/24 05:44:22;;;;;;;;;;;7.00;93.40;;;;;;5076914;28;19938;-86
2022/12/24 05:46:48;;;;;;;;;;;7.00;93.60;;;;;;5076826;28;19937;-87
2022/12/24 05:49:13;;;;;;;;;;;7.00;93.80;;;;;;5076448;28;20421;-87
2022/12/24 05:51:39;;;;;;;;;;;6.90;93.80;;;;;;5058783;28;19993;-87
2022/12/24 05:54:04;;;;;;;;;;;6.90;93.90;;;;;;5076123;28;19994;-87
2022/12/24 05:56:30;;;;;;;;;;;6.90;94.00;;;;;;5076703;28;20423;-87
2022/12/24 05:58:56;;;;;;;;;;;7.00;94.10;;;;;;5076608;28;19942;-87
2022/12/24 06:01:23;;;;;;;;;;;6.90;94.10;;;;;;5076196;28;19951;-87
2022/12/24 06:03:48;;;;;;;;;;;6.90;94.00;;;;;;5076273;28;19999;-87
2022/12/24 06:06:18;;;;;;;;;;;6.90;93.70;;;;;;5076469;28;19936;-87
2022/12/24 06:08:43;;;;;;;;;;;6.90;92.90;;;;;;5076307;28;19968;-87
2022/12/24 06:11:10;;;;;;;;;;;6.90;93.00;;;;;;5076086;28;19951;-87
2022/12/24 06:13:36;;;;;;;;;;;7.00;93.40;;;;;;5076128;28;19951;-87
2022/12/24 06:16:03;;;;;;;;;;;7.00;93.70;;;;;;5076275;28;19948;-87
2022/12/24 06:18:29;;;;;;;;;;;7.00;94.00;;;;;;5076166;28;19992;-86
2022/12/24 06:20:56;;;;;;;;;;;7.00;93.70;;;;;;5075753;28;20030;-87
2022/12/24 06:23:22;;;;;;;;;;;7.00;93.40;;;;;;5075897;28;20071;-87
2022/12/24 06:25:48;;;;;;;;;;;7.10;93.00;;;;;;5076104;28;19939;-86
2022/12/24 06:28:14;;;;;;;;;;;7.10;92.70;;;;;;5075939;28;19945;-86
2022/12/24 06:30:39;;;;;;;;;;;7.10;91.50;;;;;;5075768;28;20389;-87
2022/12/24 06:33:05;;;;;;;;;;;7.10;90.90;;;;;;5075855;28;20047;-86
2022/12/24 06:35:31;;;;;;;;;;;7.20;90.40;;;;;;5075903;28;19973;-87
2022/12/24 06:37:58;;;;;;;;;;;7.20;90.20;;;;;;5075821;28;20036;-87
2022/12/24 06:40:24;;;;;;;;;;;7.20;89.60;;;;;;5075514;28;19940;-86
2022/12/24 06:42:50;;;;;;;;;;;7.20;89.10;;;;;;5075775;28;20007;-86
2022/12/24 06:45:15;;;;;;;;;;;7.30;88.80;;;;;;5076022;28;20420;-87
2022/12/24 06:47:41;;;;;;;;;;;7.30;88.60;;;;;;5075068;28;20416;-86
2022/12/24 06:50:06;;;;;;;;;;;7.30;88.60;;;;;;5075235;28;20378;-86
2022/12/24 06:52:32;;;;;;;;;;;7.30;88.00;;;;;;5075545;28;19956;-86
2022/12/24 06:54:57;;;;;;;;;;;7.30;87.70;;;;;;5075488;28;19936;-86
2022/12/24 06:57:23;;;;;;;;;;;7.30;87.40;;;;;;5075507;28;19942;-86
2022/12/24 06:59:48;;;;;;;;;;;7.30;88.10;;;;;;5075258;28;19939;-86
2022/12/24 07:02:14;;;;;;;;;;;7.30;88.90;;;;;;5075462;28;19965;-86
2022/12/24 07:04:39;;;;;;;;;;;7.20;89.10;;;;;;5075430;28;19940;-86
2022/12/24 07:07:05;;;;;;;;;;;7.10;89.00;;;;;;5075265;28;19989;-86
2022/12/24 07:09:30;;;;;;;;;;;7.10;89.30;;;;;;5075120;28;19938;-86
2022/12/24 07:11:56;;;;;;;;;;;7.20;89.10;;;;;;5075282;28;19942;-86
2022/12/24 07:14:22;;;;;;;;;;;7.30;88.60;;;;;;5075235;28;19946;-86
2022/12/24 07:16:47;;;;;;;;;;;7.30;88.30;;;;;;5075137;28;19936;-87
2022/12/24 07:19:13;;;;;;;;;;;7.40;88.20;;;;;;5075156;28;19939;-87
2022/12/24 07:21:39;;;;;;;;;;;7.30;88.40;;;;;;5074640;28;19998;-86
2022/12/24 07:24:05;;;;;;;;;;;7.20;89.60;;;;;;5075047;28;19938;-86
2022/12/24 07:26:30;;;;;;;;;;;7.00;89.70;;;;;;5074943;28;20030;-86
2022/12/24 07:28:56;;;;;;;;;;;7.00;89.40;;;;;;5074868;28;19963;-87
2022/12/24 07:31:21;;;;;;;;;;;6.90;89.00;;;;;;5074437;28;20284;-87
2022/12/24 07:33:47;;;;;;;;;;;6.90;89.00;;;;;;5074444;28;19945;-87
2022/12/24 07:36:16;;;;;;;;;;;7.10;89.20;;;;;;5074731;28;19936;-87
2022/12/24 07:38:41;;;;;;;;;;;7.10;89.10;;;;;;5074722;28;19946;-87
2022/12/24 07:41:07;;;;;;;;;;;7.00;88.90;;;;;;5074488;28;19944;-87
2022/12/24 07:43:33;;;;;;;;;;;7.10;89.30;;;;;;5074829;28;19967;-87
2022/12/24 07:45:58;;;;;;;;;;;7.10;89.40;;;;;;5074581;28;19983;-87
2022/12/24 07:48:25;;;;;;;;;;;7.00;89.60;;;;;;5074451;28;19961;-87
2022/12/24 07:50:50;;;;;;;;;;;7.10;89.50;;;;;;5074170;28;19949;-87
2022/12/24 07:53:16;;;;;;;;;;;7.20;89.60;;;;;;5074301;28;19958;-87
2022/12/24 07:55:42;;;;;;;;;;;7.20;89.90;;;;;;5074342;28;19943;-87
2022/12/24 07:58:08;;;;;;;;;;;7.20;90.60;;;;;;5074313;28;20025;-87
2022/12/24 08:00:33;;;;;;;;;;;7.20;90.30;;;;;;5073148;28;20053;-87
2022/12/24 08:02:59;;;;;;;;;;;7.20;90.50;;;;;;5074226;28;20036;-87
2022/12/24 08:05:26;;;;;;;;;;;7.30;90.60;;;;;;5074157;28;19936;-87
2022/12/24 08:07:51;;;;;;;;;;;7.30;90.30;;;;;;5074059;28;19958;-87
2022/12/24 08:10:17;;;;;;;;;;;7.30;90.10;;;;;;5073833;28;19952;-87
2022/12/24 08:12:44;;;;;;;;;;;7.40;90.10;;;;;;5074004;28;19934;-87
2022/12/24 08:15:10;;;;;;;;;;;7.40;90.10;;;;;;5073994;28;19938;-87
2022/12/24 08:17:35;;;;;;;;;;;7.50;90.20;;;;;;5073940;28;19930;-87
2022/12/24 08:20:01;;;;;;;;;;;7.80;90.00;;;;;;5073672;28;20405;-87
2022/12/24 08:22:26;;;;;;;;;;;8.00;89.30;;;;;;5073836;28;19942;-87
2022/12/24 08:24:52;;;;;;;;;;;8.30;88.60;;;;;;5073783;28;19934;-87
2022/12/24 08:27:17;;;;;;;;;;;8.30;88.00;;;;;;5073710;28;19937;-87
2022/12/24 08:29:43;;;;;;;;;;;8.20;87.60;;;;;;5073290;28;19944;-87
2022/12/24 08:32:09;;;;;;;;;;;8.30;87.20;;;;;;5073438;28;19941;-87
2022/12/24 08:34:34;;;;;;;;;;;8.20;87.50;;;;;;5073574;28;20349;-87
2022/12/24 08:36:59;;;;;;;;;;;8.10;87.60;;;;;;5073581;28;19939;-87
2022/12/24 08:39:25;;;;;;;;;;;7.90;88.20;;;;;;5073326;28;19942;-87
2022/12/24 08:41:51;;;;;;;;;;;7.80;88.40;;;;;;5073478;28;19943;-87
2022/12/24 08:44:16;;;;;;;;;;;7.90;88.90;;;;;;5072897;28;19947;-87
2022/12/24 08:46:42;;;;;;;;;;;7.80;88.90;;;;;;5073077;28;20035;-87
2022/12/24 08:49:07;;;;;;;;;;;7.80;88.90;;;;;;5073209;28;19939;-87
2022/12/24 08:51:33;;;;;;;;;;;7.90;89.10;;;;;;5073375;28;20563;-87
2022/12/24 08:53:58;;;;;;;;;;;8.10;88.90;;;;;;5072988;28;19937;-87
2022/12/24 08:56:24;;;;;;;;;;;8.30;88.30;;;;;;5073347;28;19941;-87
2022/12/24 08:58:49;;;;;;;;;;;8.40;88.10;;;;;;5073313;28;19993;-87
2022/12/24 09:01:16;;;;;;;;;;;8.40;87.80;;;;;;5073552;28;20503;-87
2022/12/24 09:03:41;;;;;;;;;;;8.50;87.20;;;;;;5072958;28;19950;-87
2022/12/24 09:06:07;;;;;;;;;;;8.50;86.10;;;;;;5073009;28;20042;-87
2022/12/24 09:08:33;;;;;;;;;;;8.40;86.70;;;;;;5073129;28;20410;-87
2022/12/24 09:11:03;;;;;;;;;;;8.40;87.20;;;;;;5072910;28;20040;-87
2022/12/24 09:13:29;;;;;;;;;;;8.40;87.50;;;;;;5073088;28;20397;-87
2022/12/24 09:15:54;;;;;;;;;;;8.60;87.40;;;;;;5072885;28;19951;-86
2022/12/24 09:18:20;;;;;;;;;;;8.60;86.60;;;;;;5072888;28;19951;-86
2022/12/24 09:20:45;;;;;;;;;;;8.40;86.60;;;;;;5073033;28;19944;-86
2022/12/24 09:23:11;;;;;;;;;;;8.40;86.80;;;;;;5072902;28;19975;-86
2022/12/24 09:25:43;;;;;;;;;;;8.50;85.20;;;;;;5073021;28;20361;-86
2022/12/24 09:28:09;;;;;;;;;;;8.50;85.20;;;;;;5072920;28;20010;-87
2022/12/24 09:30:36;;;;;;;;;;;8.50;84.50;;;;;;5072726;28;19956;-86
2022/12/24 09:33:01;;;;;;;;;;;8.60;84.50;;;;;;5072949;28;19996;-87
2022/12/24 09:35:27;;;;;;;;;;;8.50;84.50;;;;;;5073177;28;20357;-87
2022/12/24 09:38:01;;;;;;;;;;;8.50;85.00;;;;;;5073205;28;20304;-87
2022/12/24 09:40:36;;;;;;;;;;;8.70;84.80;;;;;;5073130;28;19974;-87
2022/12/24 09:43:10;;;;;;;;;;;8.80;84.50;;;;;;5073091;28;19949;-87
2022/12/24 09:45:37;;;;;;;;;;;9.00;84.10;;;;;;5072512;28;20006;-87
2022/12/24 09:48:08;;;;;;;;;;;9.20;82.50;;;;;;5072709;28;19958;-87
2022/12/24 09:50:39;;;;;;;;;;;9.40;81.90;;;;;;5072748;28;19986;-86
2022/12/24 09:53:24;;;;;;;;;;;9.10;82.40;;;;;;5072643;28;20013;-86
2022/12/24 09:55:56;;;;;;;;;;;8.90;82.90;;;;;;5072067;28;20399;-86
2022/12/24 09:58:42;;;;;;;;;;;8.80;83.60;;;;;;5072800;28;20041;-86
2022/12/24 10:01:12;;;;;;;;;;;8.70;84.10;;;;;;5072570;28;19985;-88
2022/12/24 10:03:38;;;;;;;;;;;8.70;84.90;;;;;;5054433;28;20329;-88
2022/12/24 10:06:09;;;;;;;;;;;8.70;85.00;;;;;;5072350;28;19944;-87
2022/12/24 10:08:47;;;;;;;;;;;8.70;85.20;;;;;;5072471;28;20048;-87
2022/12/24 10:11:20;;;;;;;;;;;8.90;84.70;;;;;;5072564;28;19940;-87
2022/12/24 10:14:06;;;;;;;;;;;8.90;84.00;;;;;;5072399;28;19945;-87
2022/12/24 10:16:40;;;;;;;;;;;8.90;84.10;;;;;;5072505;28;20033;-87
2022/12/24 10:19:08;;;;;;;;;;;8.90;84.30;;;;;;5072463;28;20079;-87
2022/12/24 10:21:42;;;;;;;;;;;9.20;84.20;;;;;;5079793;22;19977;-87
2022/12/24 10:24:26;;;;;;;;;;;9.30;83.60;;;;;;5074168;28;20003;-87
2022/12/24 10:27:18;;;;;;;;;;;9.30;82.50;;;;;;5076020;28;19963;-87
2022/12/24 10:29:48;;;;;;;;;;;9.20;82.60;;;;;;5073845;28;19999;-87
2022/12/24 10:32:19;;;;;;;;;;;9.10;82.90;;;;;;5075823;28;19950;-87
2022/12/24 10:34:55;;;;;;;;;;;9.00;82.80;;;;;;5075972;28;19941;-87
2022/12/24 10:37:24;;;;;;;;;;;9.00;83.70;;;;;;5075958;28;19940;-87
2022/12/24 10:39:50;;;;;;;;;;;9.00;84.00;;;;;;5075896;28;19973;-87
2022/12/24 10:42:17;;;;;;;;;;;9.00;83.70;;;;;;5075857;28;20420;-87
2022/12/24 10:44:44;;;;;;;;;;;9.00;83.90;;;;;;5075475;28;19950;-87
2022/12/24 10:47:10;;;;;;;;;;;9.00;84.20;;;;;;5075406;28;19950;-87
2022/12/24 10:49:53;;;;;;;;;;;9.10;84.30;;;;;;5075710;28;19941;-87
2022/12/24 10:52:20;;;;;;;;;;;9.20;83.90;;;;;;5075589;28;19958;-87
2022/12/24 10:55:04;;;;;;;;;;;9.40;84.20;;;;;;5075468;28;19948;-88
2022/12/24 10:57:30;;;;;;;;;;;9.40;84.20;;;;;;5075572;28;19953;-87
2022/12/24 10:59:56;;;;;;;;;;;9.70;82.80;;;;;;5075509;28;19960;-87
2022/12/24 11:02:29;;;;;;;;;;;9.70;82.10;;;;;;5075708;28;20400;-87
2022/12/24 11:04:58;;;;;;;;;;;9.50;81.60;;;;;;5075424;28;19941;-87
2022/12/24 11:07:23;;;;;;;;;;;9.50;81.80;;;;;;5075321;28;19947;-87
2022/12/24 11:23:15;;;;;;;;;;;9.60;81.80;;;;;;5152124;27;20425;-86
2022/12/24 11:25:45;;;;;;;;;;;9.90;80.90;;;;;;5152063;27;19968;-87
2022/12/24 11:28:20;;;;;;;;;;;10.20;80.10;;;;;;5152010;27;19944;-87
2022/12/24 11:30:54;;;;;;;;;;;10.30;79.80;;;;;;5151986;27;19987;-86
2022/12/24 11:33:20;;;;;;;;;;;10.20;79.70;;;;;;5151903;27;20030;-87
2022/12/24 11:35:48;;;;;;;;;;;10.30;79.40;;;;;;5150192;27;20071;-87
2022/12/24 11:38:19;;;;;;;;;;;10.40;78.90;;;;;;5151849;27;20066;-87
2022/12/24 11:40:46;;;;;;;;;;;10.30;78.90;;;;;;5151801;27;19988;-87
2022/12/24 11:43:14;;;;;;;;;;;10.30;78.70;;;;;;5151728;27;19941;-87
2022/12/24 11:45:46;;;;;;;;;;;10.30;78.40;;;;;;5133235;27;19940;-86
2022/12/24 11:48:29;;;;;;;;;;;10.40;78.50;;;;;;5151611;27;19937;-87
2022/12/24 11:51:02;;;;;;;;;;;10.60;77.60;;;;;;5151598;27;20005;-87
2022/12/24 11:53:33;;;;;;;;;;;10.80;77.00;;;;;;5136364;27;19952;-87
2022/12/24 11:56:00;;;;;;;;;;;10.80;76.70;;;;;;5130908;28;19963;-87
2022/12/24 11:58:42;;;;;;;;;;;10.80;77.20;;;;;;5113921;28;19946;-87
2022/12/24 12:01:10;;;;;;;;;;;10.80;76.30;;;;;;5110506;28;20300;-87
2022/12/24 12:03:41;;;;;;;;;;;10.70;77.10;;;;;;5122195;28;20406;-87
2022/12/24 12:06:15;;;;;;;;;;;10.70;77.40;;;;;;5130268;28;19948;-87
2022/12/24 12:08:42;;;;;;;;;;;10.80;76.50;;;;;;5130565;28;20040;-86
2022/12/24 12:11:11;;;;;;;;;;;10.70;76.20;;;;;;5130481;28;20277;-87
2022/12/24 12:13:38;;;;;;;;;;;10.50;76.50;;;;;;5130402;28;19951;-86
2022/12/24 12:16:15;;;;;;;;;;;10.40;76.70;;;;;;5122517;28;19946;-87
2022/12/24 12:18:43;;;;;;;;;;;10.40;77.20;;;;;;5091586;28;19947;-86
2022/12/24 12:21:11;;;;;;;;;;;10.30;76.90;;;;;;5109505;28;19971;-86
2022/12/24 12:23:46;;;;;;;;;;;10.20;77.10;;;;;;5109738;28;20422;-87
2022/12/24 12:26:17;;;;;;;;;;;10.30;78.00;;;;;;5104013;28;19939;-87
2022/12/24 12:28:51;;;;;;;;;;;10.20;78.80;;;;;;5096246;28;19939;-87
2022/12/24 12:31:23;;;;;;;;;;;10.20;78.70;;;;;;5096049;28;19961;-87
2022/12/24 12:33:56;;;;;;;;;;;10.10;79.30;;;;;;5095965;28;20390;-86
2022/12/24 12:36:32;;;;;;;;;;;10.00;79.40;;;;;;5096227;28;20034;-86
2022/12/24 12:38:58;;;;;;;;;;;10.10;79.70;;;;;;5096209;28;19946;-87
2022/12/24 12:41:26;;;;;;;;;;;10.10;79.30;;;;;;5095871;28;20349;-87
2022/12/24 12:44:11;;;;;;;;;;;10.20;79.50;;;;;;5095779;28;19937;-87
2022/12/24 12:46:48;;;;;;;;;;;10.20;79.20;;;;;;5095738;28;20005;-86
2022/12/24 12:49:26;;;;;;;;;;;10.10;79.30;;;;;;5095705;28;19936;-87
2022/12/24 12:51:51;;;;;;;;;;;10.00;80.20;;;;;;5095596;28;19941;-87
2022/12/24 12:54:17;;;;;;;;;;;10.00;80.80;;;;;;5095458;28;19965;-87
2022/12/24 12:56:46;;;;;;;;;;;10.00;81.00;;;;;;5103416;28;19948;-87
2022/12/24 12:59:17;;;;;;;;;;;10.00;80.80;;;;;;5115871;28;20407;-87
2022/12/24 13:01:46;;;;;;;;;;;10.10;80.80;;;;;;5115892;28;20028;-87
2022/12/24 13:04:20;;;;;;;;;;;10.50;80.50;;;;;;5115460;28;19995;-87
2022/12/24 13:06:49;;;;;;;;;;;10.90;79.00;;;;;;5115786;28;19948;-87
2022/12/24 13:09:20;;;;;;;;;;;11.30;78.50;;;;;;5115711;28;19937;-87
2022/12/24 13:12:07;;;;;;;;;;;11.90;76.40;;;;;;5115375;28;19961;-87
2022/12/24 13:14:35;;;;;;;;;;;12.50;74.60;;;;;;5097259;28;20050;-87
2022/12/24 13:17:01;;;;;;;;;;;13.30;71.30;;;;;;5100984;28;19941;-87
2022/12/24 13:19:29;;;;;;;;;;;13.40;69.80;;;;;;5094953;28;19991;-87
2022/12/24 13:21:55;;;;;;;;;;;13.30;69.00;;;;;;5095109;28;19942;-86
2022/12/24 13:24:25;;;;;;;;;;;13.10;68.90;;;;;;5095059;28;19941;-87
2022/12/24 13:27:01;;;;;;;;;;;13.10;70.00;;;;;;5095362;28;19951;-87
2022/12/24 13:29:39;;;;;;;;;;;13.00;69.70;;;;;;5094948;28;19986;-86
2022/12/24 13:32:19;;;;;;;;;;;12.80;70.20;;;;;;5094881;28;19944;-87
2022/12/24 13:34:52;;;;;;;;;;;12.70;70.60;;;;;;5094769;28;19959;-87
2022/12/24 13:37:20;;;;;;;;;;;12.70;70.70;;;;;;5094230;28;19936;-87
2022/12/24 13:40:01;;;;;;;;;;;12.60;70.60;;;;;;5094296;28;20080;-87
2022/12/24 13:42:45;;;;;;;;;;;12.20;72.30;;;;;;5094667;28;19942;-87
2022/12/24 13:45:29;;;;;;;;;;;11.90;73.40;;;;;;5094629;28;19941;-86
2022/12/24 13:47:55;;;;;;;;;;;11.80;74.30;;;;;;5094556;28;19939;-87
2022/12/24 13:50:33;;;;;;;;;;;11.90;74.00;;;;;;5094555;28;19941;-87
2022/12/24 13:52:59;;;;;;;;;;;12.00;74.20;;;;;;5094392;28;19976;-87
2022/12/24 13:55:25;;;;;;;;;;;12.20;73.00;;;;;;5094305;28;20050;-87
2022/12/24 13:58:04;;;;;;;;;;;12.20;71.10;;;;;;5094817;28;19943;-87
2022/12/24 14:00:41;;;;;;;;;;;12.30;72.10;;;;;;5114695;28;19939;-87
2022/12/24 14:03:13;;;;;;;;;;;12.40;72.60;;;;;;5114930;28;19949;-87
2022/12/24 14:05:49;;;;;;;;;;;13.00;71.20;;;;;;5114625;28;19963;-87
2022/12/24 14:08:26;;;;;;;;;;;13.70;68.60;;;;;;5114550;28;19942;-87
2022/12/24 14:11:01;;;;;;;;;;;14.20;66.00;;;;;;5114534;28;19948;-87
2022/12/24 14:13:39;;;;;;;;;;;14.20;65.20;;;;;;5114467;28;20292;-87
2022/12/24 14:16:10;;;;;;;;;;;14.10;65.80;;;;;;5114578;28;19960;-86
2022/12/24 14:18:37;;;;;;;;;;;14.10;66.40;;;;;;5114420;28;19948;-87
2022/12/24 14:21:04;;;;;;;;;;;14.30;65.30;;;;;;5114247;28;19976;-87
2022/12/24 14:23:29;;;;;;;;;;;14.40;65.50;;;;;;5114277;28;19978;-87
2022/12/24 14:25:56;;;;;;;;;;;14.40;64.80;;;;;;5111520;28;19984;-86
2022/12/24 14:28:25;;;;;;;;;;;14.20;65.50;;;;;;5093803;28;19966;-87
2022/12/24 14:31:04;;;;;;;;;;;14.20;65.30;;;;;;5093840;28;19940;-87
2022/12/24 14:33:31;;;;;;;;;;;14.10;65.40;;;;;;5093577;28;19941;-86
2022/12/24 14:35:57;;;;;;;;;;;13.90;65.90;;;;;;5093631;28;19965;-87
2022/12/24 14:38:23;;;;;;;;;;;13.60;66.50;;;;;;5093691;28;19940;-87
2022/12/24 14:40:51;;;;;;;;;;;13.20;68.10;;;;;;5093645;28;19992;-87
2022/12/24 14:43:26;;;;;;;;;;;12.90;69.50;;;;;;5106441;28;20005;-87
2022/12/24 14:46:10;;;;;;;;;;;12.70;70.40;;;;;;5114089;28;19944;-87
2022/12/24 14:48:54;;;;;;;;;;;12.40;71.00;;;;;;5113756;28;20069;-87
2022/12/24 14:51:19;;;;;;;;;;;12.40;71.10;;;;;;5113805;28;20290;-88
2022/12/24 14:53:48;;;;;;;;;;;12.30;71.60;;;;;;5113677;28;20071;-87
2022/12/24 14:56:17;;;;;;;;;;;12.10;72.70;;;;;;5111821;28;19959;-87